createdAt,value
2018-07-25T00:00:09.913Z,95447.36
2018-07-25T00:02:38.985Z,95450.21
2018-07-25T00:05:08.271Z,95447.52
2018-07-25T00:07:37.095Z,95440.31
2018-07-25T00:10:06.017Z,95444.73
2018-07-25T00:12:35.368Z,95446.23
2018-07-25T00:15:04.771Z,95447.49
2018-07-25T00:17:37.397Z,95449.58
2018-07-25T00:20:06.639Z,95441.41
2018-07-25T00:22:35.996Z,95439.55
2018-07-25T00:25:05.473Z,95441.88
2018-07-25T00:27:35.150Z,95443.13
2018-07-25T00:39:47.593Z,95441.41
2018-07-25T00:42:16.809Z,95453.57
2018-07-25T00:44:45.868Z,95450.94
2018-07-25T00:47:15.293Z,95450.48
2018-07-25T00:49:44.491Z,95449.20
2018-07-25T00:52:13.328Z,95442.61
2018-07-25T00:54:42.148Z,95451.88
2018-07-25T00:57:11.505Z,95445.05
2018-07-25T00:59:47.352Z,95445.25
2018-07-25T01:02:26.446Z,95448.65
2018-07-25T01:04:58.605Z,95444.94
2018-07-25T01:07:33.174Z,95446.25
2018-07-25T01:10:16.404Z,95447.78
2018-07-25T01:12:49.055Z,95443.55
2018-07-25T01:15:22.667Z,95452.53
2018-07-25T01:17:54.932Z,95449.38
2018-07-25T01:20:26.289Z,95446.73
2018-07-25T01:22:58.567Z,95445.14
2018-07-25T01:25:32.994Z,95451.45
2018-07-25T01:28:15.503Z,95452.21
2018-07-25T01:30:50.160Z,95457.17
2018-07-25T01:33:24.126Z,95459.50
2018-07-25T01:35:58.213Z,95464.13
2018-07-25T01:38:31.212Z,95453.03
2018-07-25T01:41:05.661Z,95452.44
2018-07-25T01:43:40.352Z,95461.34
2018-07-25T01:46:13.085Z,95462.86
2018-07-25T01:48:49.009Z,95456.83
2018-07-25T01:51:24.913Z,95462.06
2018-07-25T01:53:58.541Z,95456.00
2018-07-25T01:59:37.915Z,95458.31
2018-07-25T02:02:51.999Z,95460.03
2018-07-25T02:05:34.967Z,95462.62
2018-07-25T02:08:24.049Z,95459.41
2018-07-25T02:11:12.063Z,95457.01
2018-07-25T02:14:03.268Z,95456.16
2018-07-25T02:16:44.906Z,95450.05
2018-07-25T02:22:21.283Z,95459.40
2018-07-25T02:25:04.903Z,95457.00
2018-07-25T02:30:36.209Z,95458.47
2018-07-25T03:21:46.052Z,95493.33
2018-07-25T04:11:38.065Z,95502.44
2018-07-25T04:32:34.098Z,95519.44
2018-07-25T04:35:15.767Z,95514.58
2018-07-25T04:37:45.355Z,95517.78
2018-07-25T04:40:15.563Z,95515.98
2018-07-25T04:42:44.515Z,95515.52
2018-07-25T04:45:13.828Z,95522.50
2018-07-25T04:47:42.654Z,95519.56
2018-07-25T04:50:11.744Z,95523.11
2018-07-25T04:52:41.274Z,95515.30
2018-07-25T04:55:12.669Z,95524.12
2018-07-25T04:57:49.960Z,95521.56
2018-07-25T05:03:14.670Z,95525.69
2018-07-25T05:05:44.197Z,95522.64
2018-07-25T05:08:13.729Z,95525.00
2018-07-25T05:10:42.906Z,95522.52
2018-07-25T05:13:12.084Z,95527.46
2018-07-25T05:15:45.365Z,95525.73
2018-07-25T05:18:19.651Z,95529.80
2018-07-25T05:20:51.696Z,95534.94
2018-07-25T05:23:25.626Z,95527.55
2018-07-25T05:26:06.536Z,95527.27
2018-07-25T05:28:35.336Z,95533.10
2018-07-25T05:31:04.478Z,95530.56
2018-07-25T05:33:33.333Z,95530.42
2018-07-25T05:36:02.141Z,95537.05
2018-07-25T05:38:31.193Z,95541.42
2018-07-25T05:41:00.240Z,95545.52
2018-07-25T05:43:29.029Z,95544.75
2018-07-25T05:45:57.908Z,95548.44
2018-07-25T05:48:26.716Z,95555.89
2018-07-25T05:50:55.760Z,95551.97
2018-07-25T05:53:25.021Z,95555.00
2018-07-25T05:55:54.196Z,95552.88
2018-07-25T05:58:23.016Z,95556.11
2018-07-25T06:00:51.828Z,95553.91
2018-07-25T06:03:21.032Z,95551.08
2018-07-25T06:05:55.788Z,95551.44
2018-07-25T06:08:25.304Z,95552.91
2018-07-25T06:11:01.381Z,95550.72
2018-07-25T06:13:30.237Z,95553.09
2018-07-25T06:15:59.088Z,95552.81
2018-07-25T06:18:27.923Z,95546.67
2018-07-25T06:20:56.773Z,95549.97
2018-07-25T06:23:25.589Z,95557.87
2018-07-25T06:25:54.691Z,95556.57
2018-07-25T06:28:23.932Z,95560.41
2018-07-25T06:30:53.010Z,95562.56
2018-07-25T06:33:22.054Z,95559.02
2018-07-25T06:35:51.077Z,95564.42
2018-07-25T06:38:20.245Z,95564.20
2018-07-25T06:40:49.607Z,95560.39
2018-07-25T06:43:18.704Z,95568.94
2018-07-25T06:45:48.044Z,95568.41
2018-07-25T06:48:17.656Z,95575.13
2018-07-25T06:50:46.868Z,95576.23
2018-07-25T06:53:15.832Z,95573.88
2018-07-25T06:55:44.668Z,95578.72
2018-07-25T06:58:14.305Z,95584.36
2018-07-25T07:00:43.128Z,95579.64
2018-07-25T07:03:12.528Z,95575.63
2018-07-25T07:05:41.632Z,95576.72
2018-07-25T07:08:10.980Z,95573.55
2018-07-25T07:10:39.934Z,95578.89
2018-07-25T07:13:09.907Z,95582.61
2018-07-25T07:15:39.792Z,95568.59
2018-07-25T07:18:10.656Z,95565.94
2018-07-25T07:20:39.523Z,95565.72
2018-07-25T07:23:08.416Z,95573.41
2018-07-25T07:25:37.621Z,95572.63
2018-07-25T07:30:58.216Z,95566.50
2018-07-25T07:33:27.481Z,95565.67
2018-07-25T07:35:56.368Z,95566.20
2018-07-25T07:38:26.459Z,95572.06
2018-07-25T07:40:55.664Z,95570.99
2018-07-25T07:43:25.077Z,95568.84
2018-07-25T07:45:54.005Z,95576.23
2018-07-25T07:48:23.765Z,95574.84
2018-07-25T07:50:54.117Z,95573.23
2018-07-25T07:59:30.157Z,95572.64
2018-07-25T08:02:00.475Z,95577.94
2018-07-25T08:04:30.186Z,95572.53
2018-07-25T08:06:59.276Z,95570.02
2018-07-25T08:09:39.144Z,95568.66
2018-07-25T08:12:08.849Z,95563.26
2018-07-25T08:14:40.489Z,95563.72
2018-07-25T08:17:09.873Z,95565.54
2018-07-25T08:19:39.063Z,95565.72
2018-07-25T08:22:08.500Z,95566.64
2018-07-25T08:24:37.757Z,95570.30
2018-07-25T08:27:06.826Z,95561.58
2018-07-25T08:29:35.642Z,95567.27
2018-07-25T08:32:04.753Z,95566.19
2018-07-25T08:37:33.760Z,95573.34
2018-07-25T08:40:02.977Z,95568.86
2018-07-25T08:42:32.097Z,95563.75
2018-07-25T08:45:01.316Z,95566.34
2018-07-25T08:47:30.172Z,95568.30
2018-07-25T08:49:59.569Z,95568.67
2018-07-25T08:52:28.876Z,95570.36
2018-07-25T08:54:57.889Z,95575.57
2018-07-25T08:57:27.307Z,95569.30
2018-07-25T08:59:56.359Z,95569.50
2018-07-25T09:02:25.419Z,95571.31
2018-07-25T09:04:54.521Z,95570.84
2018-07-25T09:07:23.404Z,95577.03
2018-07-25T09:09:52.812Z,95576.24
2018-07-25T09:12:22.241Z,95568.98
2018-07-25T09:14:51.772Z,95567.16
2018-07-25T09:17:21.292Z,95567.86
2018-07-25T09:19:50.790Z,95570.70
2018-07-25T09:22:20.213Z,95564.63
2018-07-25T09:24:49.276Z,95562.97
2018-07-25T09:27:18.481Z,95567.08
2018-07-25T09:29:47.531Z,95557.84
2018-07-25T09:32:16.795Z,95563.81
2018-07-25T09:34:46.209Z,95554.33
2018-07-25T09:37:15.249Z,95550.17
2018-07-25T09:39:44.649Z,95559.19
2018-07-25T09:42:14.721Z,95546.11
2018-07-25T09:44:43.964Z,95550.70
2018-07-25T09:47:12.988Z,95553.69
2018-07-25T09:49:42.049Z,95552.84
2018-07-25T09:52:11.684Z,95553.69
2018-07-25T09:54:40.920Z,95542.94
2018-07-25T09:57:10.824Z,95550.84
2018-07-25T09:59:40.076Z,95546.62
2018-07-25T10:02:09.347Z,95542.83
2018-07-25T10:04:38.395Z,95543.13
2018-07-25T10:07:07.692Z,95540.47
2018-07-25T10:09:36.986Z,95544.70
2018-07-25T10:12:06.255Z,95533.05
2018-07-25T10:14:35.865Z,95534.35
2018-07-25T10:17:04.917Z,95534.99
2018-07-25T10:19:34.133Z,95535.57
2018-07-25T10:22:03.190Z,95530.80
2018-07-25T10:24:32.218Z,95531.26
2018-07-25T10:27:02.205Z,95525.59
2018-07-25T10:29:31.216Z,95521.46
2018-07-25T10:32:00.490Z,95525.45
2018-07-25T10:34:29.787Z,95514.56
2018-07-25T10:36:58.840Z,95512.14
2018-07-25T10:39:28.069Z,95518.97
2018-07-25T10:41:57.993Z,95513.91
2018-07-25T10:44:27.409Z,95510.23
2018-07-25T10:46:56.449Z,95517.48
2018-07-25T10:49:25.625Z,95517.30
2018-07-25T10:51:54.844Z,95512.05
2018-07-25T10:54:24.096Z,95514.45
2018-07-25T10:56:52.940Z,95509.34
2018-07-25T10:59:22.361Z,95504.48
2018-07-25T11:01:51.444Z,95491.02
2018-07-25T11:04:23.012Z,95512.09
2018-07-25T11:06:58.834Z,95505.30
2018-07-25T11:09:28.512Z,95507.01
2018-07-25T11:12:03.251Z,95501.24
2018-07-25T11:14:57.086Z,95495.41
2018-07-25T11:17:26.450Z,95494.58
2018-07-25T11:19:55.772Z,95498.02
2018-07-25T11:22:25.323Z,95497.06
2018-07-25T11:24:54.366Z,95489.94
2018-07-25T11:27:23.245Z,95498.02
2018-07-25T11:29:52.661Z,95493.13
2018-07-25T11:32:21.947Z,95497.08
2018-07-25T11:34:50.981Z,95498.08
2018-07-25T11:37:20.783Z,95495.52
2018-07-25T11:39:50.176Z,95484.44
2018-07-25T11:45:25.409Z,95482.81
2018-07-25T11:47:54.532Z,95483.10
2018-07-25T11:50:36.476Z,95479.75
2018-07-25T11:53:05.396Z,95477.29
2018-07-25T11:55:35.065Z,95473.77
2018-07-25T11:58:04.036Z,95473.50
2018-07-25T12:00:33.228Z,95471.56
2018-07-25T12:03:02.083Z,95473.05
2018-07-25T12:05:31.581Z,95466.34
2018-07-25T12:08:01.160Z,95463.06
2018-07-25T12:10:31.018Z,95461.19
2018-07-25T12:13:00.160Z,95460.22
2018-07-25T12:15:29.297Z,95456.91
2018-07-25T12:17:58.409Z,95451.00
2018-07-25T12:20:28.109Z,95445.94
2018-07-25T12:22:57.964Z,95445.10
2018-07-25T12:25:28.094Z,95444.75
2018-07-25T12:27:57.724Z,95438.98
2018-07-25T12:30:26.796Z,95439.17
2018-07-25T12:32:56.202Z,95433.61
2018-07-25T12:35:25.480Z,95443.23
2018-07-25T12:37:54.505Z,95434.45
2018-07-25T12:40:29.489Z,95432.45
2018-07-25T12:42:58.802Z,95432.50
2018-07-25T12:45:28.139Z,95430.84
2018-07-25T12:47:57.412Z,95434.25
2018-07-25T12:50:26.988Z,95437.83
2018-07-25T12:52:57.310Z,95432.77
2018-07-25T12:55:27.309Z,95429.77
2018-07-25T12:57:59.011Z,95422.73
2018-07-25T13:00:28.232Z,95421.73
2018-07-25T13:02:57.639Z,95415.42
2018-07-25T13:05:26.833Z,95422.31
2018-07-25T13:07:55.953Z,95412.41
2018-07-25T13:10:25.135Z,95416.98
2018-07-25T13:12:55.223Z,95407.64
2018-07-25T13:15:35.836Z,95414.84
2018-07-25T13:18:04.926Z,95409.31
2018-07-25T13:20:34.029Z,95412.40
2018-07-25T13:23:03.561Z,95407.98
2018-07-25T13:25:32.613Z,95409.09
2018-07-25T13:28:01.886Z,95402.75
2018-07-25T13:30:31.052Z,95415.67
2018-07-25T13:33:00.557Z,95410.84
2018-07-25T13:35:29.832Z,95406.81
2018-07-25T13:37:59.565Z,95408.81
2018-07-25T13:40:28.621Z,95412.91
2018-07-25T13:42:58.395Z,95413.09
2018-07-25T13:45:27.376Z,95402.45
2018-07-25T13:47:57.036Z,95406.50
2018-07-25T13:50:26.524Z,95403.67
2018-07-25T13:52:55.593Z,95402.88
2018-07-25T13:55:25.160Z,95403.80
2018-07-25T13:57:56.204Z,95396.02
2018-07-25T14:00:41.482Z,95413.57
2018-07-25T14:03:11.473Z,95407.29
2018-07-25T14:05:41.281Z,95397.52
2018-07-25T14:08:10.757Z,95398.75
2018-07-25T14:10:47.659Z,95396.41
2018-07-25T14:13:17.451Z,95400.06
2018-07-25T14:15:47.429Z,95391.33
2018-07-25T14:18:17.164Z,95400.62
2018-07-25T14:20:48.056Z,95390.49
2018-07-25T14:23:17.457Z,95390.94
2018-07-25T14:25:47.252Z,95394.98
2018-07-25T14:28:21.357Z,95391.86
2018-07-25T14:30:51.105Z,95385.41
2018-07-25T14:33:20.160Z,95394.27
2018-07-25T14:35:49.316Z,95395.81
2018-07-25T14:38:18.421Z,95392.58
2018-07-25T14:40:57.928Z,95386.82
2018-07-25T14:43:34.849Z,95390.66
2018-07-25T14:46:05.984Z,95386.16
2018-07-25T14:48:35.908Z,95383.33
2018-07-25T14:51:19.098Z,95388.55
2018-07-25T14:53:54.229Z,95382.67
2018-07-25T14:56:25.374Z,95386.90
2018-07-25T14:59:05.097Z,95387.90
2018-07-25T15:04:40.250Z,95369.02
2018-07-25T15:07:09.334Z,95376.31
2018-07-25T15:09:42.365Z,95383.61
2018-07-25T15:15:16.992Z,95391.94
2018-07-25T15:17:51.874Z,95386.09
2018-07-25T15:20:21.254Z,95390.09
2018-07-25T15:22:50.901Z,95389.49
2018-07-25T15:25:20.240Z,95384.09
2018-07-25T15:27:49.530Z,95388.70
2018-07-25T15:30:18.967Z,95386.88
2018-07-25T15:32:48.286Z,95385.96
2018-07-25T15:35:18.035Z,95384.52
2018-07-25T15:37:47.448Z,95382.48
2018-07-25T15:40:17.228Z,95382.30
2018-07-25T15:42:49.779Z,95376.23
2018-07-25T15:45:19.249Z,95379.05
2018-07-25T15:47:48.411Z,95389.66
2018-07-25T15:50:17.764Z,95388.77
2018-07-25T15:52:46.937Z,95391.41
2018-07-25T15:55:15.917Z,95396.48
2018-07-25T15:57:45.007Z,95390.77
2018-07-25T16:00:14.061Z,95384.03
2018-07-25T16:02:43.777Z,95378.38
2018-07-25T16:05:12.805Z,95379.33
2018-07-25T16:07:42.543Z,95378.95
2018-07-25T16:10:12.098Z,95390.70
2018-07-25T16:12:42.435Z,95413.20
2018-07-25T16:15:12.409Z,95427.41
2018-07-25T16:17:43.686Z,95425.55
2018-07-25T16:20:13.538Z,95428.13
2018-07-25T16:22:43.097Z,95420.89
2018-07-25T16:25:12.430Z,95418.11
2018-07-25T16:27:41.948Z,95412.98
2018-07-25T16:30:12.039Z,95419.52
2018-07-25T16:32:45.791Z,95416.01
2018-07-25T16:35:20.414Z,95420.78
2018-07-25T16:37:49.888Z,95427.37
2018-07-25T16:40:19.844Z,95423.50
2018-07-25T16:42:49.217Z,95419.97
2018-07-25T16:45:24.267Z,95425.42
2018-07-25T16:47:54.041Z,95423.31
2018-07-25T16:50:25.733Z,95421.64
2018-07-25T16:52:55.590Z,95423.38
2018-07-25T16:55:24.777Z,95418.95
2018-07-25T16:57:54.277Z,95423.86
2018-07-25T17:00:23.349Z,95420.79
2018-07-25T17:02:52.880Z,95422.73
2018-07-25T17:05:22.386Z,95430.57
2018-07-25T17:07:51.544Z,95434.13
2018-07-25T17:10:20.664Z,95431.52
2018-07-25T17:12:51.097Z,95432.59
2018-07-25T17:15:21.011Z,95428.13
2018-07-25T17:17:50.612Z,95428.18
2018-07-25T17:20:21.274Z,95420.05
2018-07-25T17:22:50.616Z,95431.12
2018-07-25T17:25:20.438Z,95425.25
2018-07-25T17:27:49.565Z,95424.95
2018-07-25T17:32:56.779Z,95442.82
2018-07-25T17:35:26.149Z,95439.47
2018-07-25T17:37:56.792Z,95437.69
2018-07-25T17:40:26.446Z,95435.30
2018-07-25T17:42:55.993Z,95441.00
2018-07-25T17:45:25.558Z,95430.16
2018-07-25T17:47:55.137Z,95427.64
2018-07-25T17:50:24.077Z,95433.44
2018-07-25T17:52:53.252Z,95433.26
2018-07-25T17:55:22.337Z,95439.05
2018-07-25T17:57:51.529Z,95437.05
2018-07-25T18:00:23.970Z,95430.50
2018-07-25T18:02:53.435Z,95433.00
2018-07-25T18:05:22.720Z,95436.28
2018-07-25T18:07:51.899Z,95436.31
2018-07-25T18:10:22.718Z,95444.63
2018-07-25T18:13:55.587Z,95443.37
2018-07-25T18:16:24.741Z,95449.08
2018-07-25T18:18:54.520Z,95447.27
2018-07-25T18:21:23.697Z,95452.61
2018-07-25T18:23:52.928Z,95451.03
2018-07-25T18:26:22.589Z,95454.80
2018-07-25T18:28:51.725Z,95462.80
2018-07-25T18:31:21.345Z,95465.02
2018-07-25T18:33:50.676Z,95465.32
2018-07-25T18:36:19.822Z,95469.36
2018-07-25T18:38:48.947Z,95475.02
2018-07-25T18:41:18.501Z,95476.61
2018-07-25T18:43:47.679Z,95479.55
2018-07-25T18:46:24.237Z,95482.44
2018-07-25T18:48:53.559Z,95486.16
2018-07-25T18:51:23.046Z,95493.36
2018-07-25T18:53:52.590Z,95493.08
2018-07-25T18:56:22.092Z,95499.69
2018-07-25T18:58:51.789Z,95498.67
2018-07-25T19:01:21.081Z,95497.06
2018-07-25T19:03:50.047Z,95497.61
2018-07-25T19:06:21.318Z,95483.79
2018-07-25T19:08:51.234Z,95486.14
2018-07-25T19:11:21.155Z,95490.69
2018-07-25T19:14:02.509Z,95482.45
2018-07-25T19:16:31.833Z,95477.11
2018-07-25T19:19:01.139Z,95471.71
2018-07-25T19:21:30.768Z,95473.33
2018-07-25T19:23:59.783Z,95470.14
2018-07-25T19:26:29.114Z,95464.27
2018-07-25T19:28:59.822Z,95464.24
2018-07-25T19:31:30.094Z,95461.05
2018-07-25T19:33:59.348Z,95466.37
2018-07-25T19:36:28.311Z,95472.50
2018-07-25T19:38:57.410Z,95470.67
2018-07-25T19:41:26.364Z,95471.23
2018-07-25T19:43:55.712Z,95472.03
2018-07-25T19:46:25.518Z,95473.37
2018-07-25T19:48:54.641Z,95476.84
2018-07-25T19:51:23.594Z,95477.41
2018-07-25T19:53:52.615Z,95480.33
2018-07-25T19:56:22.921Z,95486.98
2018-07-25T19:58:52.705Z,95488.05
2018-07-25T20:01:21.890Z,95497.90
2018-07-25T20:03:50.743Z,95502.18
2018-07-25T20:06:27.969Z,95499.50
2018-07-25T20:08:57.508Z,95488.89
2018-07-25T20:11:26.715Z,95494.20
2018-07-25T20:14:01.270Z,95495.54
2018-07-25T20:16:30.478Z,95490.77
2018-07-25T20:18:59.797Z,95495.02
2018-07-25T20:21:30.666Z,95496.92
2018-07-25T20:24:03.159Z,95490.81
2018-07-25T20:26:32.421Z,95496.64
2018-07-25T20:29:01.610Z,95499.31
2018-07-25T20:31:31.567Z,95499.02
2018-07-25T20:34:00.552Z,95494.48
2018-07-25T20:36:29.596Z,95503.52
2018-07-25T20:38:58.880Z,95505.10
2018-07-25T20:41:28.179Z,95512.25
2018-07-25T20:43:57.940Z,95510.39
2018-07-25T20:46:27.444Z,95521.27
2018-07-25T20:48:56.413Z,95524.94
2018-07-25T20:51:25.487Z,95516.45
2018-07-25T20:53:54.887Z,95522.30
2018-07-25T20:56:23.980Z,95525.21
2018-07-25T20:58:53.394Z,95528.86
2018-07-25T21:01:22.697Z,95524.30
2018-07-25T21:03:51.677Z,95522.16
2018-07-25T21:06:20.626Z,95522.95
2018-07-25T21:08:49.736Z,95519.97
2018-07-25T21:11:18.885Z,95522.28
2018-07-25T21:13:47.815Z,95523.33
2018-07-25T21:16:43.135Z,95519.83
2018-07-25T21:19:12.554Z,95523.25
2018-07-25T21:21:42.145Z,95524.04
2018-07-25T21:24:19.089Z,95529.59
2018-07-25T21:26:52.457Z,95529.78
2018-07-25T21:29:21.730Z,95537.42
2018-07-25T21:31:50.839Z,95543.25
2018-07-25T21:34:20.333Z,95548.31
2018-07-25T21:36:49.558Z,95553.07
2018-07-25T21:47:32.567Z,95552.27
2018-07-25T21:50:01.732Z,95545.09
2018-07-25T21:52:32.279Z,95554.57
2018-07-25T21:55:01.606Z,95563.30
2018-07-25T21:57:32.589Z,95564.05
2018-07-25T22:00:01.965Z,95551.89
2018-07-25T22:02:31.129Z,95559.57
2018-07-25T22:05:00.849Z,95554.84
2018-07-25T22:07:30.170Z,95554.57
2018-07-25T22:10:01.828Z,95566.19
2018-07-25T22:12:35.396Z,95565.14
2018-07-25T22:15:05.330Z,95557.98
2018-07-25T22:17:34.934Z,95561.14
2018-07-25T22:20:07.237Z,95563.72
2018-07-25T22:22:36.257Z,95562.11
2018-07-25T22:25:06.098Z,95558.65
2018-07-25T22:27:38.974Z,95562.35
2018-07-25T22:30:11.834Z,95555.40
2018-07-25T22:32:46.956Z,95545.86
2018-07-25T22:35:19.107Z,95547.68
2018-07-25T22:37:48.537Z,95540.23
2018-07-25T22:40:18.785Z,95538.57
2018-07-25T22:42:48.413Z,95535.02
2018-07-25T22:45:17.580Z,95530.72
2018-07-25T22:47:46.698Z,95532.78
2018-07-25T22:50:15.915Z,95541.23
2018-07-25T22:52:44.986Z,95542.05
2018-07-25T22:55:14.336Z,95551.08
2018-07-25T22:57:43.382Z,95539.69
2018-07-25T23:00:12.828Z,95546.71
2018-07-25T23:02:42.206Z,95545.05
2018-07-25T23:05:11.405Z,95547.64
2018-07-25T23:07:43.475Z,95546.02
2018-07-25T23:10:12.589Z,95554.71
2018-07-25T23:12:41.753Z,95547.28
2018-07-25T23:15:11.588Z,95544.80
2018-07-25T23:17:40.747Z,95538.57
2018-07-25T23:20:09.845Z,95541.72
2018-07-25T23:22:53.078Z,95543.48
2018-07-25T23:25:22.122Z,95545.28
2018-07-25T23:27:51.548Z,95542.61
2018-07-25T23:30:20.742Z,95541.30
2018-07-25T23:32:50.495Z,95541.77
2018-07-25T23:35:20.222Z,95547.02
2018-07-25T23:37:49.812Z,95547.57
2018-07-25T23:40:19.546Z,95544.63
2018-07-25T23:42:49.513Z,95546.97
2018-07-25T23:45:19.009Z,95546.42
2018-07-25T23:47:47.945Z,95559.36
2018-07-25T23:50:17.373Z,95575.55
2018-07-25T23:52:48.175Z,95575.05
2018-07-25T23:55:17.216Z,95577.50
2018-07-25T23:57:46.534Z,95575.85
